sensor_id;sensor_type;location;lat;lon;timestamp;P1;durP1;ratioP1;P2;durP2;ratioP2
60641;SDS011;46837;52.446;-1.930;2023-03-20T00:00:08;12.76;;;2.48;;
60641;SDS011;46837;52.446;-1.930;2023-03-20T00:01:11;10.48;;;2.28;;
60641;SDS011;46837;52.446;-1.930;2023-03-20T00:02:07;9.68;;;1.90;;
60641;SDS011;46837;52.446;-1.930;2023-03-20T00:03:09;11.36;;;2.42;;
60641;SDS011;46837;52.446;-1.930;2023-03-20T00:04:08;9.52;;;2.46;;
60641;SDS011;46837;52.446;-1.930;2023-03-20T00:06:11;9.38;;;1.64;;
60641;SDS011;46837;52.446;-1.930;2023-03-20T00:07:10;7.88;;;1.44;;
60641;SDS011;46837;52.446;-1.930;2023-03-20T00:08:07;4.34;;;1.84;;
60641;SDS011;46837;52.446;-1.930;2023-03-20T00:09:07;6.38;;;2.42;;
60641;SDS011;46837;52.446;-1.930;2023-03-20T00:10:07;6.58;;;1.92;;
60641;SDS011;46837;52.446;-1.930;2023-03-20T00:11:11;8.00;;;2.46;;
60641;SDS011;46837;52.446;-1.930;2023-03-20T00:12:09;13.50;;;3.68;;
60641;SDS011;46837;52.446;-1.930;2023-03-20T00:13:18;7.28;;;2.30;;
60641;SDS011;46837;52.446;-1.930;2023-03-20T00:14:08;7.32;;;2.56;;
60641;SDS011;46837;52.446;-1.930;2023-03-20T00:15:13;12.00;;;2.34;;
60641;SDS011;46837;52.446;-1.930;2023-03-20T00:16:07;10.64;;;1.94;;
60641;SDS011;46837;52.446;-1.930;2023-03-20T00:17:09;11.88;;;1.94;;
60641;SDS011;46837;52.446;-1.930;2023-03-20T00:19:12;16.04;;;2.94;;
60641;SDS011;46837;52.446;-1.930;2023-03-20T00:20:12;6.18;;;2.18;;
60641;SDS011;46837;52.446;-1.930;2023-03-20T00:21:24;10.82;;;2.20;;
60641;SDS011;46837;52.446;-1.930;2023-03-20T00:22:07;9.34;;;2.94;;
60641;SDS011;46837;52.446;-1.930;2023-03-20T00:23:07;13.62;;;2.60;;
60641;SDS011;46837;52.446;-1.930;2023-03-20T00:24:07;9.04;;;2.42;;
60641;SDS011;46837;52.446;-1.930;2023-03-20T00:25:11;12.20;;;2.38;;
60641;SDS011;46837;52.446;-1.930;2023-03-20T00:26:08;6.60;;;2.28;;
60641;SDS011;46837;52.446;-1.930;2023-03-20T00:27:08;11.10;;;3.28;;
60641;SDS011;46837;52.446;-1.930;2023-03-20T00:29:08;9.50;;;2.54;;
60641;SDS011;46837;52.446;-1.930;2023-03-20T00:32:09;9.60;;;2.32;;
60641;SDS011;46837;52.446;-1.930;2023-03-20T00:33:07;11.06;;;2.10;;
60641;SDS011;46837;52.446;-1.930;2023-03-20T00:35:14;9.02;;;2.14;;
60641;SDS011;46837;52.446;-1.930;2023-03-20T00:36:07;6.58;;;1.90;;
60641;SDS011;46837;52.446;-1.930;2023-03-20T00:37:07;10.42;;;2.36;;
60641;SDS011;46837;52.446;-1.930;2023-03-20T00:38:07;8.94;;;2.10;;
60641;SDS011;46837;52.446;-1.930;2023-03-20T00:39:07;22.20;;;3.54;;
60641;SDS011;46837;52.446;-1.930;2023-03-20T00:40:07;13.92;;;3.34;;
60641;SDS011;46837;52.446;-1.930;2023-03-20T00:41:12;11.46;;;2.92;;
60641;SDS011;46837;52.446;-1.930;2023-03-20T00:42:08;16.22;;;3.40;;
60641;SDS011;46837;52.446;-1.930;2023-03-20T00:43:07;13.28;;;2.40;;
60641;SDS011;46837;52.446;-1.930;2023-03-20T00:45:09;14.70;;;3.06;;
60641;SDS011;46837;52.446;-1.930;2023-03-20T00:46:10;13.88;;;2.90;;
60641;SDS011;46837;52.446;-1.930;2023-03-20T00:47:24;9.64;;;3.16;;
60641;SDS011;46837;52.446;-1.930;2023-03-20T00:48:07;13.54;;;2.80;;
60641;SDS011;46837;52.446;-1.930;2023-03-20T00:49:09;14.82;;;3.22;;
60641;SDS011;46837;52.446;-1.930;2023-03-20T00:51:07;15.04;;;3.38;;
60641;SDS011;46837;52.446;-1.930;2023-03-20T00:52:08;15.60;;;3.42;;
60641;SDS011;46837;52.446;-1.930;2023-03-20T00:53:10;9.10;;;3.56;;
60641;SDS011;46837;52.446;-1.930;2023-03-20T00:55:07;16.02;;;3.66;;
60641;SDS011;46837;52.446;-1.930;2023-03-20T00:56:11;9.68;;;3.44;;
60641;SDS011;46837;52.446;-1.930;2023-03-20T00:57:08;7.52;;;2.86;;
60641;SDS011;46837;52.446;-1.930;2023-03-20T00:58:08;13.94;;;3.66;;
60641;SDS011;46837;52.446;-1.930;2023-03-20T00:59:08;12.62;;;3.44;;
60641;SDS011;46837;52.446;-1.930;2023-03-20T01:00:10;11.50;;;2.90;;
60641;SDS011;46837;52.446;-1.930;2023-03-20T01:01:07;12.34;;;2.72;;
60641;SDS011;46837;52.446;-1.930;2023-03-20T01:02:07;9.34;;;2.90;;
60641;SDS011;46837;52.446;-1.930;2023-03-20T01:05:07;9.54;;;3.02;;
60641;SDS011;46837;52.446;-1.930;2023-03-20T01:06:07;16.46;;;3.28;;
60641;SDS011;46837;52.446;-1.930;2023-03-20T01:07:09;21.56;;;3.80;;
60641;SDS011;46837;52.446;-1.930;2023-03-20T01:08:11;12.68;;;3.40;;
60641;SDS011;46837;52.446;-1.930;2023-03-20T01:09:07;14.46;;;2.92;;
60641;SDS011;46837;52.446;-1.930;2023-03-20T01:10:08;13.00;;;3.28;;
60641;SDS011;46837;52.446;-1.930;2023-03-20T01:11:08;14.24;;;4.16;;
60641;SDS011;46837;52.446;-1.930;2023-03-20T01:12:08;10.40;;;3.20;;
60641;SDS011;46837;52.446;-1.930;2023-03-20T01:13:11;15.16;;;3.78;;
60641;SDS011;46837;52.446;-1.930;2023-03-20T01:14:11;11.86;;;3.94;;
60641;SDS011;46837;52.446;-1.930;2023-03-20T01:15:26;10.14;;;3.62;;
60641;SDS011;46837;52.446;-1.930;2023-03-20T01:16:14;7.74;;;3.28;;
60641;SDS011;46837;52.446;-1.930;2023-03-20T01:18:08;10.38;;;3.04;;
60641;SDS011;46837;52.446;-1.930;2023-03-20T01:19:09;15.86;;;3.58;;
60641;SDS011;46837;52.446;-1.930;2023-03-20T01:21:07;13.10;;;3.34;;
60641;SDS011;46837;52.446;-1.930;2023-03-20T01:22:07;17.82;;;3.66;;
60641;SDS011;46837;52.446;-1.930;2023-03-20T01:23:07;12.28;;;3.72;;
60641;SDS011;46837;52.446;-1.930;2023-03-20T01:24:07;15.30;;;3.52;;
60641;SDS011;46837;52.446;-1.930;2023-03-20T01:25:07;8.02;;;3.66;;
60641;SDS011;46837;52.446;-1.930;2023-03-20T01:27:10;14.94;;;3.82;;
60641;SDS011;46837;52.446;-1.930;2023-03-20T01:29:25;12.52;;;4.46;;
60641;SDS011;46837;52.446;-1.930;2023-03-20T01:31:07;12.84;;;3.92;;
60641;SDS011;46837;52.446;-1.930;2023-03-20T01:34:08;15.82;;;4.08;;
60641;SDS011;46837;52.446;-1.930;2023-03-20T01:35:07;8.74;;;4.36;;
60641;SDS011;46837;52.446;-1.930;2023-03-20T01:36:08;11.12;;;4.44;;
60641;SDS011;46837;52.446;-1.930;2023-03-20T01:37:11;12.36;;;3.02;;
60641;SDS011;46837;52.446;-1.930;2023-03-20T01:38:10;11.46;;;3.66;;
60641;SDS011;46837;52.446;-1.930;2023-03-20T01:39:08;15.96;;;3.70;;
60641;SDS011;46837;52.446;-1.930;2023-03-20T01:40:50;13.56;;;4.18;;
60641;SDS011;46837;52.446;-1.930;2023-03-20T01:41:10;16.02;;;3.86;;
60641;SDS011;46837;52.446;-1.930;2023-03-20T01:42:07;15.28;;;5.44;;
60641;SDS011;46837;52.446;-1.930;2023-03-20T01:45:11;11.52;;;4.02;;
60641;SDS011;46837;52.446;-1.930;2023-03-20T01:46:14;15.50;;;4.10;;
60641;SDS011;46837;52.446;-1.930;2023-03-20T01:49:08;18.64;;;4.24;;
60641;SDS011;46837;52.446;-1.930;2023-03-20T01:51:07;7.88;;;2.96;;
60641;SDS011;46837;52.446;-1.930;2023-03-20T01:52:07;10.02;;;3.78;;
60641;SDS011;46837;52.446;-1.930;2023-03-20T01:53:09;12.36;;;4.30;;
60641;SDS011;46837;52.446;-1.930;2023-03-20T01:55:07;9.48;;;2.40;;
60641;SDS011;46837;52.446;-1.930;2023-03-20T01:56:07;12.10;;;2.80;;
60641;SDS011;46837;52.446;-1.930;2023-03-20T01:58:08;12.50;;;2.74;;
60641;SDS011;46837;52.446;-1.930;2023-03-20T01:59:17;9.82;;;2.56;;
60641;SDS011;46837;52.446;-1.930;2023-03-20T02:00:08;11.98;;;3.54;;
60641;SDS011;46837;52.446;-1.930;2023-03-20T02:01:07;12.00;;;3.04;;
60641;SDS011;46837;52.446;-1.930;2023-03-20T02:02:07;14.64;;;3.64;;
60641;SDS011;46837;52.446;-1.930;2023-03-20T02:03:07;23.52;;;3.76;;
60641;SDS011;46837;52.446;-1.930;2023-03-20T02:04:07;8.40;;;2.10;;
60641;SDS011;46837;52.446;-1.930;2023-03-20T02:05:07;10.42;;;2.36;;
60641;SDS011;46837;52.446;-1.930;2023-03-20T02:06:07;9.36;;;2.46;;
60641;SDS011;46837;52.446;-1.930;2023-03-20T02:07:07;7.80;;;2.66;;
60641;SDS011;46837;52.446;-1.930;2023-03-20T02:09:07;13.14;;;2.72;;
60641;SDS011;46837;52.446;-1.930;2023-03-20T02:10:08;13.86;;;3.04;;
60641;SDS011;46837;52.446;-1.930;2023-03-20T02:11:07;10.98;;;2.68;;
60641;SDS011;46837;52.446;-1.930;2023-03-20T02:12:07;15.18;;;2.66;;
60641;SDS011;46837;52.446;-1.930;2023-03-20T02:13:07;7.78;;;1.80;;
60641;SDS011;46837;52.446;-1.930;2023-03-20T02:14:07;12.16;;;2.30;;
60641;SDS011;46837;52.446;-1.930;2023-03-20T02:15:07;11.80;;;2.58;;
60641;SDS011;46837;52.446;-1.930;2023-03-20T02:16:11;11.32;;;2.62;;
60641;SDS011;46837;52.446;-1.930;2023-03-20T02:17:07;7.68;;;3.24;;
60641;SDS011;46837;52.446;-1.930;2023-03-20T02:18:07;9.30;;;3.46;;
60641;SDS011;46837;52.446;-1.930;2023-03-20T02:19:08;9.92;;;2.52;;
60641;SDS011;46837;52.446;-1.930;2023-03-20T02:20:13;11.46;;;2.28;;
60641;SDS011;46837;52.446;-1.930;2023-03-20T02:30:51;17.76;;;5.00;;
60641;SDS011;46837;52.446;-1.930;2023-03-20T02:40:52;18.88;;;2.86;;
60641;SDS011;46837;52.446;-1.930;2023-03-20T02:42:08;16.24;;;3.44;;
60641;SDS011;46837;52.446;-1.930;2023-03-20T02:47:12;17.14;;;2.50;;
60641;SDS011;46837;52.446;-1.930;2023-03-20T02:52:14;10.14;;;2.56;;
60641;SDS011;46837;52.446;-1.930;2023-03-20T02:53:14;14.86;;;2.60;;
60641;SDS011;46837;52.446;-1.930;2023-03-20T02:57:08;10.56;;;2.28;;
60641;SDS011;46837;52.446;-1.930;2023-03-20T02:59:11;12.34;;;2.52;;
60641;SDS011;46837;52.446;-1.930;2023-03-20T03:02:07;18.84;;;3.14;;
60641;SDS011;46837;52.446;-1.930;2023-03-20T03:05:10;14.32;;;2.90;;
60641;SDS011;46837;52.446;-1.930;2023-03-20T03:07:07;19.36;;;3.18;;
60641;SDS011;46837;52.446;-1.930;2023-03-20T03:08:07;12.66;;;2.50;;
60641;SDS011;46837;52.446;-1.930;2023-03-20T03:10:11;13.16;;;2.22;;
60641;SDS011;46837;52.446;-1.930;2023-03-20T03:11:07;18.04;;;3.36;;
60641;SDS011;46837;52.446;-1.930;2023-03-20T03:13:08;14.86;;;2.36;;
60641;SDS011;46837;52.446;-1.930;2023-03-20T03:14:07;12.56;;;2.32;;
60641;SDS011;46837;52.446;-1.930;2023-03-20T03:15:13;15.04;;;2.70;;
60641;SDS011;46837;52.446;-1.930;2023-03-20T03:16:11;9.78;;;2.44;;
60641;SDS011;46837;52.446;-1.930;2023-03-20T03:17:07;16.98;;;2.48;;
60641;SDS011;46837;52.446;-1.930;2023-03-20T03:18:09;12.90;;;2.30;;
60641;SDS011;46837;52.446;-1.930;2023-03-20T03:19:07;10.94;;;2.30;;
60641;SDS011;46837;52.446;-1.930;2023-03-20T03:21:07;15.10;;;2.34;;
60641;SDS011;46837;52.446;-1.930;2023-03-20T03:22:07;11.88;;;2.60;;
60641;SDS011;46837;52.446;-1.930;2023-03-20T03:23:07;15.04;;;2.66;;
60641;SDS011;46837;52.446;-1.930;2023-03-20T03:25:08;18.00;;;3.64;;
60641;SDS011;46837;52.446;-1.930;2023-03-20T03:26:08;12.88;;;3.74;;
60641;SDS011;46837;52.446;-1.930;2023-03-20T03:28:08;17.16;;;2.60;;
60641;SDS011;46837;52.446;-1.930;2023-03-20T03:30:15;9.24;;;2.06;;
60641;SDS011;46837;52.446;-1.930;2023-03-20T03:31:08;15.74;;;2.50;;
60641;SDS011;46837;52.446;-1.930;2023-03-20T03:32:18;10.24;;;2.86;;
60641;SDS011;46837;52.446;-1.930;2023-03-20T03:33:08;16.50;;;3.62;;
60641;SDS011;46837;52.446;-1.930;2023-03-20T03:34:07;12.64;;;3.46;;
60641;SDS011;46837;52.446;-1.930;2023-03-20T03:35:09;8.54;;;2.22;;
60641;SDS011;46837;52.446;-1.930;2023-03-20T03:37:16;12.30;;;2.96;;
60641;SDS011;46837;52.446;-1.930;2023-03-20T03:38:13;13.02;;;2.76;;
60641;SDS011;46837;52.446;-1.930;2023-03-20T03:44:10;11.46;;;2.60;;
60641;SDS011;46837;52.446;-1.930;2023-03-20T03:46:08;12.70;;;2.22;;
60641;SDS011;46837;52.446;-1.930;2023-03-20T03:47:12;16.24;;;3.24;;
60641;SDS011;46837;52.446;-1.930;2023-03-20T03:48:13;10.80;;;2.58;;
60641;SDS011;46837;52.446;-1.930;2023-03-20T03:49:07;16.16;;;2.18;;
60641;SDS011;46837;52.446;-1.930;2023-03-20T03:50:09;15.22;;;2.82;;
60641;SDS011;46837;52.446;-1.930;2023-03-20T03:51:08;9.28;;;2.06;;
60641;SDS011;46837;52.446;-1.930;2023-03-20T03:52:08;12.88;;;2.04;;
60641;SDS011;46837;52.446;-1.930;2023-03-20T03:53:08;9.52;;;2.30;;
60641;SDS011;46837;52.446;-1.930;2023-03-20T03:55:10;12.64;;;2.06;;
60641;SDS011;46837;52.446;-1.930;2023-03-20T03:56:08;20.68;;;2.94;;
60641;SDS011;46837;52.446;-1.930;2023-03-20T03:57:07;13.24;;;2.84;;
60641;SDS011;46837;52.446;-1.930;2023-03-20T03:58:08;13.38;;;2.48;;
60641;SDS011;46837;52.446;-1.930;2023-03-20T04:00:08;15.56;;;2.88;;
60641;SDS011;46837;52.446;-1.930;2023-03-20T04:01:07;8.46;;;2.26;;
60641;SDS011;46837;52.446;-1.930;2023-03-20T04:02:08;8.04;;;2.32;;
60641;SDS011;46837;52.446;-1.930;2023-03-20T04:03:07;9.40;;;1.98;;
60641;SDS011;46837;52.446;-1.930;2023-03-20T04:04:07;12.52;;;1.92;;
60641;SDS011;46837;52.446;-1.930;2023-03-20T04:05:07;9.68;;;3.04;;
60641;SDS011;46837;52.446;-1.930;2023-03-20T04:06:07;11.28;;;1.84;;
60641;SDS011;46837;52.446;-1.930;2023-03-20T04:07:07;8.46;;;2.42;;
60641;SDS011;46837;52.446;-1.930;2023-03-20T04:08:07;8.08;;;3.04;;
60641;SDS011;46837;52.446;-1.930;2023-03-20T04:09:07;7.56;;;1.56;;
60641;SDS011;46837;52.446;-1.930;2023-03-20T04:10:07;13.78;;;2.48;;
60641;SDS011;46837;52.446;-1.930;2023-03-20T04:12:17;13.08;;;2.34;;
60641;SDS011;46837;52.446;-1.930;2023-03-20T04:13:07;6.92;;;1.78;;
60641;SDS011;46837;52.446;-1.930;2023-03-20T04:14:07;13.62;;;3.04;;
60641;SDS011;46837;52.446;-1.930;2023-03-20T04:15:07;10.96;;;2.64;;
60641;SDS011;46837;52.446;-1.930;2023-03-20T04:16:09;10.22;;;2.52;;
60641;SDS011;46837;52.446;-1.930;2023-03-20T04:17:07;10.44;;;1.86;;
60641;SDS011;46837;52.446;-1.930;2023-03-20T04:18:07;8.96;;;3.12;;
60641;SDS011;46837;52.446;-1.930;2023-03-20T04:19:07;13.34;;;3.10;;
60641;SDS011;46837;52.446;-1.930;2023-03-20T04:20:07;10.64;;;2.28;;
60641;SDS011;46837;52.446;-1.930;2023-03-20T04:21:07;7.78;;;2.22;;
60641;SDS011;46837;52.446;-1.930;2023-03-20T04:22:07;7.34;;;2.14;;
60641;SDS011;46837;52.446;-1.930;2023-03-20T04:23:07;10.00;;;2.28;;
60641;SDS011;46837;52.446;-1.930;2023-03-20T04:24:07;16.40;;;2.92;;
60641;SDS011;46837;52.446;-1.930;2023-03-20T04:25:07;9.44;;;2.46;;
60641;SDS011;46837;52.446;-1.930;2023-03-20T04:26:07;8.02;;;1.96;;
60641;SDS011;46837;52.446;-1.930;2023-03-20T04:27:07;16.50;;;3.08;;
60641;SDS011;46837;52.446;-1.930;2023-03-20T04:28:07;14.68;;;2.98;;
60641;SDS011;46837;52.446;-1.930;2023-03-20T04:29:07;9.28;;;2.28;;
60641;SDS011;46837;52.446;-1.930;2023-03-20T04:30:07;13.46;;;2.74;;
60641;SDS011;46837;52.446;-1.930;2023-03-20T04:31:07;13.34;;;2.36;;
60641;SDS011;46837;52.446;-1.930;2023-03-20T04:32:07;10.86;;;1.76;;
60641;SDS011;46837;52.446;-1.930;2023-03-20T04:33:07;12.16;;;2.10;;
60641;SDS011;46837;52.446;-1.930;2023-03-20T04:34:07;13.10;;;2.12;;
60641;SDS011;46837;52.446;-1.930;2023-03-20T04:35:07;8.52;;;2.12;;
60641;SDS011;46837;52.446;-1.930;2023-03-20T04:36:07;10.12;;;1.64;;
60641;SDS011;46837;52.446;-1.930;2023-03-20T04:37:08;8.32;;;1.88;;
60641;SDS011;46837;52.446;-1.930;2023-03-20T04:38:07;10.40;;;2.34;;
60641;SDS011;46837;52.446;-1.930;2023-03-20T04:39:07;17.06;;;2.46;;
60641;SDS011;46837;52.446;-1.930;2023-03-20T04:40:07;12.26;;;3.04;;
60641;SDS011;46837;52.446;-1.930;2023-03-20T04:41:07;11.50;;;2.74;;
60641;SDS011;46837;52.446;-1.930;2023-03-20T04:42:07;13.64;;;2.70;;
60641;SDS011;46837;52.446;-1.930;2023-03-20T04:43:07;9.12;;;2.68;;
60641;SDS011;46837;52.446;-1.930;2023-03-20T04:44:07;8.38;;;2.90;;
60641;SDS011;46837;52.446;-1.930;2023-03-20T04:45:07;18.46;;;2.66;;
60641;SDS011;46837;52.446;-1.930;2023-03-20T04:46:07;12.50;;;2.46;;
60641;SDS011;46837;52.446;-1.930;2023-03-20T04:47:07;9.08;;;2.50;;
60641;SDS011;46837;52.446;-1.930;2023-03-20T04:48:07;5.92;;;2.14;;
60641;SDS011;46837;52.446;-1.930;2023-03-20T04:49:07;12.12;;;3.62;;
60641;SDS011;46837;52.446;-1.930;2023-03-20T04:50:07;9.94;;;2.12;;
60641;SDS011;46837;52.446;-1.930;2023-03-20T04:51:07;15.30;;;2.76;;
60641;SDS011;46837;52.446;-1.930;2023-03-20T04:52:07;9.32;;;2.24;;
60641;SDS011;46837;52.446;-1.930;2023-03-20T04:53:07;6.36;;;2.36;;
60641;SDS011;46837;52.446;-1.930;2023-03-20T04:54:07;7.84;;;1.74;;
60641;SDS011;46837;52.446;-1.930;2023-03-20T04:55:07;7.82;;;2.06;;
60641;SDS011;46837;52.446;-1.930;2023-03-20T04:56:07;4.66;;;2.16;;
60641;SDS011;46837;52.446;-1.930;2023-03-20T04:57:07;11.04;;;3.10;;
60641;SDS011;46837;52.446;-1.930;2023-03-20T04:58:07;11.74;;;2.70;;
60641;SDS011;46837;52.446;-1.930;2023-03-20T04:59:07;10.88;;;2.08;;
60641;SDS011;46837;52.446;-1.930;2023-03-20T05:00:07;11.88;;;2.48;;
60641;SDS011;46837;52.446;-1.930;2023-03-20T05:01:07;5.74;;;2.46;;
60641;SDS011;46837;52.446;-1.930;2023-03-20T05:02:07;11.04;;;2.50;;
60641;SDS011;46837;52.446;-1.930;2023-03-20T05:03:07;7.26;;;2.18;;
60641;SDS011;46837;52.446;-1.930;2023-03-20T05:04:07;9.72;;;1.96;;
60641;SDS011;46837;52.446;-1.930;2023-03-20T05:05:07;9.88;;;2.96;;
60641;SDS011;46837;52.446;-1.930;2023-03-20T05:06:07;8.46;;;1.86;;
60641;SDS011;46837;52.446;-1.930;2023-03-20T05:07:07;4.44;;;1.98;;
60641;SDS011;46837;52.446;-1.930;2023-03-20T05:08:07;9.66;;;2.28;;
60641;SDS011;46837;52.446;-1.930;2023-03-20T05:09:07;8.20;;;2.94;;
60641;SDS011;46837;52.446;-1.930;2023-03-20T05:10:07;10.12;;;3.38;;
60641;SDS011;46837;52.446;-1.930;2023-03-20T05:11:07;7.24;;;3.18;;
60641;SDS011;46837;52.446;-1.930;2023-03-20T05:12:07;10.06;;;2.36;;
60641;SDS011;46837;52.446;-1.930;2023-03-20T05:13:07;6.40;;;1.92;;
60641;SDS011;46837;52.446;-1.930;2023-03-20T05:14:07;9.26;;;2.60;;
60641;SDS011;46837;52.446;-1.930;2023-03-20T05:15:07;10.62;;;2.36;;
60641;SDS011;46837;52.446;-1.930;2023-03-20T05:16:07;9.20;;;2.12;;
60641;SDS011;46837;52.446;-1.930;2023-03-20T05:17:07;7.78;;;2.32;;
60641;SDS011;46837;52.446;-1.930;2023-03-20T05:18:07;9.64;;;2.74;;
60641;SDS011;46837;52.446;-1.930;2023-03-20T05:19:07;11.80;;;2.62;;
60641;SDS011;46837;52.446;-1.930;2023-03-20T05:20:07;8.56;;;3.18;;
60641;SDS011;46837;52.446;-1.930;2023-03-20T05:21:07;5.32;;;2.02;;
60641;SDS011;46837;52.446;-1.930;2023-03-20T05:22:07;6.12;;;2.68;;
60641;SDS011;46837;52.446;-1.930;2023-03-20T05:23:07;5.64;;;2.30;;
60641;SDS011;46837;52.446;-1.930;2023-03-20T05:24:07;8.04;;;3.00;;
60641;SDS011;46837;52.446;-1.930;2023-03-20T05:25:07;11.22;;;2.42;;
60641;SDS011;46837;52.446;-1.930;2023-03-20T05:26:07;8.56;;;2.54;;
60641;SDS011;46837;52.446;-1.930;2023-03-20T05:27:07;5.94;;;2.36;;
60641;SDS011;46837;52.446;-1.930;2023-03-20T05:28:07;10.96;;;2.62;;
60641;SDS011;46837;52.446;-1.930;2023-03-20T05:29:07;6.74;;;2.64;;
60641;SDS011;46837;52.446;-1.930;2023-03-20T05:30:07;8.84;;;2.66;;
60641;SDS011;46837;52.446;-1.930;2023-03-20T05:31:07;6.44;;;2.44;;
60641;SDS011;46837;52.446;-1.930;2023-03-20T05:32:07;12.88;;;3.38;;
60641;SDS011;46837;52.446;-1.930;2023-03-20T05:33:07;6.04;;;2.28;;
60641;SDS011;46837;52.446;-1.930;2023-03-20T05:34:07;10.36;;;3.12;;
60641;SDS011;46837;52.446;-1.930;2023-03-20T05:35:07;8.42;;;2.76;;
60641;SDS011;46837;52.446;-1.930;2023-03-20T05:36:07;8.10;;;2.98;;
60641;SDS011;46837;52.446;-1.930;2023-03-20T05:37:07;8.22;;;2.70;;
60641;SDS011;46837;52.446;-1.930;2023-03-20T05:38:07;10.20;;;3.36;;
60641;SDS011;46837;52.446;-1.930;2023-03-20T05:39:07;5.72;;;2.28;;
60641;SDS011;46837;52.446;-1.930;2023-03-20T05:40:08;5.16;;;2.56;;
60641;SDS011;46837;52.446;-1.930;2023-03-20T05:41:07;3.82;;;2.62;;
60641;SDS011;46837;52.446;-1.930;2023-03-20T05:42:07;8.50;;;3.18;;
60641;SDS011;46837;52.446;-1.930;2023-03-20T05:43:07;4.60;;;2.20;;
60641;SDS011;46837;52.446;-1.930;2023-03-20T05:44:07;5.64;;;2.84;;
60641;SDS011;46837;52.446;-1.930;2023-03-20T05:45:07;5.80;;;2.72;;
60641;SDS011;46837;52.446;-1.930;2023-03-20T05:46:07;5.80;;;3.14;;
60641;SDS011;46837;52.446;-1.930;2023-03-20T05:47:07;6.80;;;3.04;;
60641;SDS011;46837;52.446;-1.930;2023-03-20T05:48:07;6.54;;;3.50;;
60641;SDS011;46837;52.446;-1.930;2023-03-20T05:49:07;6.82;;;3.78;;
60641;SDS011;46837;52.446;-1.930;2023-03-20T05:50:07;7.58;;;3.58;;
60641;SDS011;46837;52.446;-1.930;2023-03-20T05:51:07;5.10;;;3.60;;
60641;SDS011;46837;52.446;-1.930;2023-03-20T05:52:07;6.52;;;3.16;;
60641;SDS011;46837;52.446;-1.930;2023-03-20T05:53:07;12.18;;;3.52;;
60641;SDS011;46837;52.446;-1.930;2023-03-20T05:54:07;11.60;;;4.74;;
60641;SDS011;46837;52.446;-1.930;2023-03-20T05:55:07;11.04;;;3.48;;
60641;SDS011;46837;52.446;-1.930;2023-03-20T05:56:07;10.48;;;4.36;;
60641;SDS011;46837;52.446;-1.930;2023-03-20T05:57:07;7.62;;;3.66;;
60641;SDS011;46837;52.446;-1.930;2023-03-20T05:58:07;6.10;;;3.84;;
60641;SDS011;46837;52.446;-1.930;2023-03-20T05:59:07;7.76;;;4.02;;
60641;SDS011;46837;52.446;-1.930;2023-03-20T06:00:07;11.90;;;3.76;;
60641;SDS011;46837;52.446;-1.930;2023-03-20T06:01:07;5.24;;;3.52;;
60641;SDS011;46837;52.446;-1.930;2023-03-20T06:02:07;11.50;;;3.62;;
60641;SDS011;46837;52.446;-1.930;2023-03-20T06:03:09;6.80;;;3.56;;
60641;SDS011;46837;52.446;-1.930;2023-03-20T06:04:07;8.96;;;3.92;;
60641;SDS011;46837;52.446;-1.930;2023-03-20T06:05:07;9.66;;;3.78;;
60641;SDS011;46837;52.446;-1.930;2023-03-20T06:06:07;7.22;;;3.50;;
60641;SDS011;46837;52.446;-1.930;2023-03-20T06:07:07;8.86;;;3.42;;
60641;SDS011;46837;52.446;-1.930;2023-03-20T06:08:07;8.46;;;4.14;;
60641;SDS011;46837;52.446;-1.930;2023-03-20T06:09:07;7.34;;;3.60;;
60641;SDS011;46837;52.446;-1.930;2023-03-20T06:10:07;9.22;;;2.84;;
60641;SDS011;46837;52.446;-1.930;2023-03-20T06:11:07;6.82;;;3.80;;
60641;SDS011;46837;52.446;-1.930;2023-03-20T06:12:07;12.70;;;4.86;;
60641;SDS011;46837;52.446;-1.930;2023-03-20T06:13:07;14.92;;;3.82;;
60641;SDS011;46837;52.446;-1.930;2023-03-20T06:14:07;10.62;;;4.54;;
60641;SDS011;46837;52.446;-1.930;2023-03-20T06:15:07;9.66;;;3.40;;
60641;SDS011;46837;52.446;-1.930;2023-03-20T06:16:07;8.56;;;4.10;;
60641;SDS011;46837;52.446;-1.930;2023-03-20T06:17:07;6.36;;;3.04;;
60641;SDS011;46837;52.446;-1.930;2023-03-20T06:18:07;11.64;;;3.68;;
60641;SDS011;46837;52.446;-1.930;2023-03-20T06:19:07;7.48;;;3.80;;
60641;SDS011;46837;52.446;-1.930;2023-03-20T06:20:07;8.80;;;4.06;;
60641;SDS011;46837;52.446;-1.930;2023-03-20T06:21:07;8.58;;;4.52;;
60641;SDS011;46837;52.446;-1.930;2023-03-20T06:22:07;9.72;;;3.98;;
60641;SDS011;46837;52.446;-1.930;2023-03-20T06:23:07;11.36;;;4.76;;
60641;SDS011;46837;52.446;-1.930;2023-03-20T06:24:07;8.08;;;4.24;;
60641;SDS011;46837;52.446;-1.930;2023-03-20T06:25:07;9.90;;;4.90;;
60641;SDS011;46837;52.446;-1.930;2023-03-20T06:26:07;8.02;;;3.92;;
60641;SDS011;46837;52.446;-1.930;2023-03-20T06:27:07;6.34;;;4.50;;
60641;SDS011;46837;52.446;-1.930;2023-03-20T06:28:07;9.86;;;3.54;;
60641;SDS011;46837;52.446;-1.930;2023-03-20T06:29:07;12.04;;;4.44;;
60641;SDS011;46837;52.446;-1.930;2023-03-20T06:30:07;10.04;;;5.66;;
60641;SDS011;46837;52.446;-1.930;2023-03-20T06:31:07;7.40;;;4.42;;
60641;SDS011;46837;52.446;-1.930;2023-03-20T06:32:07;8.46;;;3.74;;
60641;SDS011;46837;52.446;-1.930;2023-03-20T06:33:07;12.12;;;4.26;;
60641;SDS011;46837;52.446;-1.930;2023-03-20T06:34:07;11.16;;;4.30;;
60641;SDS011;46837;52.446;-1.930;2023-03-20T06:35:07;6.24;;;3.80;;
60641;SDS011;46837;52.446;-1.930;2023-03-20T06:36:07;6.00;;;4.36;;
60641;SDS011;46837;52.446;-1.930;2023-03-20T06:37:07;6.68;;;3.54;;
60641;SDS011;46837;52.446;-1.930;2023-03-20T06:38:07;11.64;;;4.44;;
60641;SDS011;46837;52.446;-1.930;2023-03-20T06:39:07;8.62;;;3.92;;
60641;SDS011;46837;52.446;-1.930;2023-03-20T06:40:07;7.28;;;3.06;;
60641;SDS011;46837;52.446;-1.930;2023-03-20T06:41:07;9.14;;;4.00;;
60641;SDS011;46837;52.446;-1.930;2023-03-20T06:42:07;11.36;;;6.18;;
60641;SDS011;46837;52.446;-1.930;2023-03-20T06:43:07;14.02;;;5.82;;
60641;SDS011;46837;52.446;-1.930;2023-03-20T06:44:07;8.54;;;3.80;;
60641;SDS011;46837;52.446;-1.930;2023-03-20T06:45:07;11.58;;;4.42;;
60641;SDS011;46837;52.446;-1.930;2023-03-20T06:46:07;13.36;;;4.36;;
60641;SDS011;46837;52.446;-1.930;2023-03-20T06:47:07;13.66;;;4.16;;
60641;SDS011;46837;52.446;-1.930;2023-03-20T06:48:07;6.46;;;4.00;;
60641;SDS011;46837;52.446;-1.930;2023-03-20T06:49:07;13.22;;;4.14;;
60641;SDS011;46837;52.446;-1.930;2023-03-20T06:50:07;9.70;;;4.48;;
60641;SDS011;46837;52.446;-1.930;2023-03-20T06:51:07;4.74;;;3.56;;
60641;SDS011;46837;52.446;-1.930;2023-03-20T06:52:07;5.68;;;3.34;;
60641;SDS011;46837;52.446;-1.930;2023-03-20T06:53:07;8.72;;;4.60;;
60641;SDS011;46837;52.446;-1.930;2023-03-20T06:54:07;7.32;;;4.04;;
60641;SDS011;46837;52.446;-1.930;2023-03-20T06:55:07;10.92;;;4.58;;
60641;SDS011;46837;52.446;-1.930;2023-03-20T06:56:07;10.18;;;3.82;;
60641;SDS011;46837;52.446;-1.930;2023-03-20T06:57:07;6.36;;;3.82;;
60641;SDS011;46837;52.446;-1.930;2023-03-20T06:58:07;12.18;;;4.68;;
60641;SDS011;46837;52.446;-1.930;2023-03-20T06:59:07;8.16;;;3.96;;
60641;SDS011;46837;52.446;-1.930;2023-03-20T07:00:07;9.90;;;4.38;;
60641;SDS011;46837;52.446;-1.930;2023-03-20T07:01:07;8.94;;;4.42;;
60641;SDS011;46837;52.446;-1.930;2023-03-20T07:02:08;8.32;;;4.14;;
60641;SDS011;46837;52.446;-1.930;2023-03-20T07:03:07;9.80;;;4.60;;
60641;SDS011;46837;52.446;-1.930;2023-03-20T07:04:07;6.44;;;4.22;;
60641;SDS011;46837;52.446;-1.930;2023-03-20T07:05:07;11.58;;;5.20;;
60641;SDS011;46837;52.446;-1.930;2023-03-20T07:06:07;7.28;;;4.18;;
60641;SDS011;46837;52.446;-1.930;2023-03-20T07:07:07;9.98;;;4.72;;
60641;SDS011;46837;52.446;-1.930;2023-03-20T07:08:07;14.40;;;4.42;;
60641;SDS011;46837;52.446;-1.930;2023-03-20T07:09:07;14.44;;;4.80;;
60641;SDS011;46837;52.446;-1.930;2023-03-20T07:10:07;8.92;;;4.94;;
60641;SDS011;46837;52.446;-1.930;2023-03-20T07:11:07;7.60;;;3.70;;